sensor_id;sensor_type;location;lat;lon;timestamp;pressure;altitude;pressure_sealevel;temperature;humidity
61039;BME280;46919;45.816;3.104;2022-09-09T00:02:04;97738.47;;;16.35;73.90
61039;BME280;46919;45.816;3.104;2022-09-09T00:04:34;97734.44;;;16.47;73.19
61039;BME280;46919;45.816;3.104;2022-09-09T00:09:29;97731.16;;;16.51;73.36
61039;BME280;46919;45.816;3.104;2022-09-09T00:12:08;97726.56;;;16.51;73.42
61039;BME280;46919;45.816;3.104;2022-09-09T00:14:54;97720.25;;;16.56;73.01
61039;BME280;46919;45.816;3.104;2022-09-09T00:20:23;97728.50;;;16.66;71.73
61039;BME280;46919;45.816;3.104;2022-09-09T00:23:08;97725.25;;;16.74;71.03
61039;BME280;46919;45.816;3.104;2022-09-09T00:28:22;97729.06;;;16.73;70.97
61039;BME280;46919;45.816;3.104;2022-09-09T00:30:48;97729.03;;;16.63;71.88
61039;BME280;46919;45.816;3.104;2022-09-09T00:33:16;97725.75;;;16.61;71.85
61039;BME280;46919;45.816;3.104;2022-09-09T00:35:57;97737.19;;;16.53;72.17
61039;BME280;46919;45.816;3.104;2022-09-09T00:38:28;97730.88;;;16.47;72.61
61039;BME280;46919;45.816;3.104;2022-09-09T00:52:52;97726.13;;;16.17;74.10
61039;BME280;46919;45.816;3.104;2022-09-09T00:55:41;97725.06;;;16.23;73.31
61039;BME280;46919;45.816;3.104;2022-09-09T00:58:10;97732.97;;;16.24;72.79
61039;BME280;46919;45.816;3.104;2022-09-09T01:01:10;97710.94;;;16.36;71.04
61039;BME280;46919;45.816;3.104;2022-09-09T01:16:44;97707.38;;;16.36;70.50
61039;BME280;46919;45.816;3.104;2022-09-09T01:19:18;97723.75;;;16.36;70.46
61039;BME280;46919;45.816;3.104;2022-09-09T01:21:56;97712.06;;;16.40;69.94
61039;BME280;46919;45.816;3.104;2022-09-09T01:24:38;97714.75;;;16.35;70.19
61039;BME280;46919;45.816;3.104;2022-09-09T01:27:08;97718.03;;;16.32;69.89
61039;BME280;46919;45.816;3.104;2022-09-09T01:29:35;97708.75;;;16.38;69.64
61039;BME280;46919;45.816;3.104;2022-09-09T01:32:35;97708.78;;;16.43;69.46
61039;BME280;46919;45.816;3.104;2022-09-09T01:34:49;97707.13;;;16.42;69.68
61039;BME280;46919;45.816;3.104;2022-09-09T01:37:15;97708.75;;;16.38;69.63
61039;BME280;46919;45.816;3.104;2022-09-09T01:39:43;97714.47;;;16.32;70.10
61039;BME280;46919;45.816;3.104;2022-09-09T01:42:12;97712.56;;;16.32;69.56
61039;BME280;46919;45.816;3.104;2022-09-09T01:44:38;97720.69;;;16.27;69.87
61039;BME280;46919;45.816;3.104;2022-09-09T01:47:04;97715.78;;;16.24;70.13
61039;BME280;46919;45.816;3.104;2022-09-09T01:49:30;97715.75;;;16.19;70.29
61039;BME280;46919;45.816;3.104;2022-09-09T01:51:57;97714.09;;;16.12;70.33
61039;BME280;46919;45.816;3.104;2022-09-09T01:54:29;97722.25;;;16.07;70.73
61039;BME280;46919;45.816;3.104;2022-09-09T02:04:51;97718.91;;;15.95;69.60
61039;BME280;46919;45.816;3.104;2022-09-09T02:07:30;97717.28;;;15.94;69.37
61039;BME280;46919;45.816;3.104;2022-09-09T02:10:08;97719.44;;;15.92;69.21
61039;BME280;46919;45.816;3.104;2022-09-09T02:12:35;97714.06;;;16.02;68.46
61039;BME280;46919;45.816;3.104;2022-09-09T02:15:11;97716.53;;;16.04;68.57
61039;BME280;46919;45.816;3.104;2022-09-09T02:17:40;97721.66;;;16.00;68.87
61039;BME280;46919;45.816;3.104;2022-09-09T02:20:12;97718.66;;;15.97;69.34
61039;BME280;46919;45.816;3.104;2022-09-09T02:22:39;97718.09;;;15.94;69.06
61039;BME280;46919;45.816;3.104;2022-09-09T02:25:10;97725.72;;;15.92;69.54
61039;BME280;46919;45.816;3.104;2022-09-09T02:27:38;97722.13;;;15.87;69.89
61039;BME280;46919;45.816;3.104;2022-09-09T02:30:06;97717.22;;;15.84;69.92
61039;BME280;46919;45.816;3.104;2022-09-09T02:32:35;97726.78;;;15.86;69.98
61039;BME280;46919;45.816;3.104;2022-09-09T02:35:07;97719.09;;;15.78;70.42
61039;BME280;46919;45.816;3.104;2022-09-09T02:37:38;97716.13;;;15.80;70.54
61039;BME280;46919;45.816;3.104;2022-09-09T02:40:06;97711.22;;;15.82;70.45
61039;BME280;46919;45.816;3.104;2022-09-09T02:42:41;97710.94;;;15.78;71.13
61039;BME280;46919;45.816;3.104;2022-09-09T02:45:08;97704.06;;;15.75;71.30
61039;BME280;46919;45.816;3.104;2022-09-09T02:47:37;97706.56;;;15.77;71.33
61039;BME280;46919;45.816;3.104;2022-09-09T02:52:50;97697.31;;;15.78;71.36
61039;BME280;46919;45.816;3.104;2022-09-09T02:55:38;97694.50;;;15.73;71.94
61039;BME280;46919;45.816;3.104;2022-09-09T02:58:07;97704.88;;;15.76;72.03
61039;BME280;46919;45.816;3.104;2022-09-09T03:00:33;97712.81;;;15.78;71.97
61039;BME280;46919;45.816;3.104;2022-09-09T03:03:03;97717.13;;;15.73;72.48
61039;BME280;46919;45.816;3.104;2022-09-09T03:05:28;97708.91;;;15.68;72.98
61039;BME280;46919;45.816;3.104;2022-09-09T03:07:54;97708.34;;;15.66;72.86
61039;BME280;46919;45.816;3.104;2022-09-09T03:10:19;97705.88;;;15.65;72.98
61039;BME280;46919;45.816;3.104;2022-09-09T03:12:45;97711.06;;;15.66;73.14
61039;BME280;46919;45.816;3.104;2022-09-09T03:15:10;97706.16;;;15.63;73.59
61039;BME280;46919;45.816;3.104;2022-09-09T03:17:36;97702.00;;;15.55;74.34
61039;BME280;46919;45.816;3.104;2022-09-09T03:20:03;97707.13;;;15.47;74.61
61039;BME280;46919;45.816;3.104;2022-09-09T03:22:29;97706.81;;;15.43;74.94
61039;BME280;46919;45.816;3.104;2022-09-09T03:24:54;97702.72;;;15.40;74.95
61039;BME280;46919;45.816;3.104;2022-09-09T03:27:20;97699.97;;;15.35;75.23
61039;BME280;46919;45.816;3.104;2022-09-09T03:29:46;97706.47;;;15.29;75.83
61039;BME280;46919;45.816;3.104;2022-09-09T03:32:12;97697.13;;;15.20;76.64
61039;BME280;46919;45.816;3.104;2022-09-09T03:34:37;97701.44;;;15.16;77.45
61039;BME280;46919;45.816;3.104;2022-09-09T03:37:06;97701.91;;;15.08;77.77
61039;BME280;46919;45.816;3.104;2022-09-09T03:39:31;97701.88;;;15.02;78.13
61039;BME280;46919;45.816;3.104;2022-09-09T03:41:57;97711.00;;;14.91;78.33
61039;BME280;46919;45.816;3.104;2022-09-09T03:44:22;97710.69;;;14.88;79.01
61039;BME280;46919;45.816;3.104;2022-09-09T03:46:48;97707.72;;;14.89;78.97
61039;BME280;46919;45.816;3.104;2022-09-09T03:49:13;97703.38;;;14.88;79.27
61039;BME280;46919;45.816;3.104;2022-09-09T03:51:39;97700.53;;;14.78;79.85
61039;BME280;46919;45.816;3.104;2022-09-09T03:54:06;97711.91;;;14.75;80.25
61039;BME280;46919;45.816;3.104;2022-09-09T03:56:34;97712.00;;;14.80;80.13
61039;BME280;46919;45.816;3.104;2022-09-09T03:58:59;97709.84;;;14.82;80.29
61039;BME280;46919;45.816;3.104;2022-09-09T04:01:25;97712.13;;;14.68;81.21
61039;BME280;46919;45.816;3.104;2022-09-09T04:03:51;97714.97;;;14.56;81.97
61039;BME280;46919;45.816;3.104;2022-09-09T04:06:18;97725.66;;;14.41;82.72
61039;BME280;46919;45.816;3.104;2022-09-09T04:08:45;97730.41;;;14.28;83.29
61039;BME280;46919;45.816;3.104;2022-09-09T04:11:14;97729.59;;;14.28;84.16
61039;BME280;46919;45.816;3.104;2022-09-09T04:13:41;97726.56;;;14.24;83.86
61039;BME280;46919;45.816;3.104;2022-09-09T04:16:08;97731.28;;;14.12;84.26
61039;BME280;46919;45.816;3.104;2022-09-09T04:18:34;97726.06;;;14.27;82.85
61039;BME280;46919;45.816;3.104;2022-09-09T04:21:00;97719.44;;;14.62;80.19
61039;BME280;46919;45.816;3.104;2022-09-09T04:23:27;97716.38;;;14.86;78.48
61039;BME280;46919;45.816;3.104;2022-09-09T04:25:55;97723.00;;;14.95;77.33
61039;BME280;46919;45.816;3.104;2022-09-09T04:28:23;97718.19;;;15.02;76.73
61039;BME280;46919;45.816;3.104;2022-09-09T04:30:49;97714.66;;;15.02;76.84
61039;BME280;46919;45.816;3.104;2022-09-09T04:33:14;97714.91;;;15.00;76.79
61039;BME280;46919;45.816;3.104;2022-09-09T04:35:48;97714.84;;;14.95;77.12
61039;BME280;46919;45.816;3.104;2022-09-09T04:38:14;97714.81;;;14.90;77.42
61039;BME280;46919;45.816;3.104;2022-09-09T04:40:45;97718.03;;;14.87;77.47
61039;BME280;46919;45.816;3.104;2022-09-09T04:43:12;97726.19;;;14.87;77.57
61039;BME280;46919;45.816;3.104;2022-09-09T04:45:39;97725.13;;;14.88;76.91
61039;BME280;46919;45.816;3.104;2022-09-09T04:48:06;97729.47;;;14.89;76.88
61039;BME280;46919;45.816;3.104;2022-09-09T04:50:31;97731.63;;;14.87;76.78
61039;BME280;46919;45.816;3.104;2022-09-09T04:53:00;97732.16;;;14.84;76.71
61039;BME280;46919;45.816;3.104;2022-09-09T04:55:26;97737.84;;;14.82;76.90
61039;BME280;46919;45.816;3.104;2022-09-09T04:57:51;97739.19;;;14.80;76.84
61039;BME280;46919;45.816;3.104;2022-09-09T05:00:17;97738.09;;;14.81;76.47
61039;BME280;46919;45.816;3.104;2022-09-09T05:02:44;97742.72;;;14.80;76.30
61039;BME280;46919;45.816;3.104;2022-09-09T05:05:09;97746.84;;;14.83;76.04
61039;BME280;46919;45.816;3.104;2022-09-09T05:07:36;97739.25;;;14.85;76.11
61039;BME280;46919;45.816;3.104;2022-09-09T05:10:02;97742.28;;;14.89;75.66
61039;BME280;46919;45.816;3.104;2022-09-09T05:12:31;97748.53;;;14.89;75.51
61039;BME280;46919;45.816;3.104;2022-09-09T05:14:57;97751.75;;;14.86;75.54
61039;BME280;46919;45.816;3.104;2022-09-09T05:17:22;97751.19;;;14.84;75.68
61039;BME280;46919;45.816;3.104;2022-09-09T05:19:48;97749.63;;;14.88;75.60
61039;BME280;46919;45.816;3.104;2022-09-09T05:22:20;97750.44;;;14.89;75.48
61039;BME280;46919;45.816;3.104;2022-09-09T05:24:48;97745.00;;;14.89;75.49
61039;BME280;46919;45.816;3.104;2022-09-09T05:27:17;97747.47;;;14.90;75.49
61039;BME280;46919;45.816;3.104;2022-09-09T05:29:43;97755.63;;;14.90;75.44
61039;BME280;46919;45.816;3.104;2022-09-09T05:32:09;97755.56;;;14.85;75.70
61039;BME280;46919;45.816;3.104;2022-09-09T05:34:35;97758.84;;;14.87;75.53
61039;BME280;46919;45.816;3.104;2022-09-09T05:37:00;97759.09;;;14.85;75.68
61039;BME280;46919;45.816;3.104;2022-09-09T05:39:26;97764.81;;;14.84;76.03
61039;BME280;46919;45.816;3.104;2022-09-09T05:41:51;97759.06;;;14.80;75.92
61039;BME280;46919;45.816;3.104;2022-09-09T05:44:16;97769.13;;;14.80;76.35
61039;BME280;46919;45.816;3.104;2022-09-09T05:46:42;97777.53;;;14.78;76.50
61039;BME280;46919;45.816;3.104;2022-09-09T05:49:08;97772.41;;;14.82;76.72
61039;BME280;46919;45.816;3.104;2022-09-09T05:51:33;97774.06;;;14.83;76.42
61039;BME280;46919;45.816;3.104;2022-09-09T05:53:59;97780.63;;;14.87;76.64
61039;BME280;46919;45.816;3.104;2022-09-09T05:56:29;97782.28;;;14.88;76.81
61039;BME280;46919;45.816;3.104;2022-09-09T05:58:55;97785.81;;;14.89;76.67
61039;BME280;46919;45.816;3.104;2022-09-09T06:01:27;97781.00;;;14.96;76.11
61039;BME280;46919;45.816;3.104;2022-09-09T06:03:54;97788.66;;;14.99;75.79
61039;BME280;46919;45.816;3.104;2022-09-09T06:06:27;97793.88;;;15.06;75.45
61039;BME280;46919;45.816;3.104;2022-09-09T06:08:56;97796.66;;;15.11;75.05
61039;BME280;46919;45.816;3.104;2022-09-09T06:11:27;97791.59;;;15.19;74.82
61039;BME280;46919;45.816;3.104;2022-09-09T06:13:54;97797.88;;;15.25;74.54
61039;BME280;46919;45.816;3.104;2022-09-09T06:16:22;97792.75;;;15.29;74.64
61039;BME280;46919;45.816;3.104;2022-09-09T06:18:51;97793.59;;;15.29;75.21
61039;BME280;46919;45.816;3.104;2022-09-09T06:21:36;97799.59;;;15.31;74.85
61039;BME280;46919;45.816;3.104;2022-09-09T06:24:06;97794.69;;;15.33;75.05
61039;BME280;46919;45.816;3.104;2022-09-09T06:26:34;97794.19;;;15.36;75.66
61039;BME280;46919;45.816;3.104;2022-09-09T06:29:01;97796.38;;;15.39;75.29
61039;BME280;46919;45.816;3.104;2022-09-09T06:31:29;97800.84;;;15.51;74.17
61039;BME280;46919;45.816;3.104;2022-09-09T06:33:56;97805.59;;;15.61;73.69
61039;BME280;46919;45.816;3.104;2022-09-09T06:36:27;97797.19;;;15.67;73.48
61039;BME280;46919;45.816;3.104;2022-09-09T06:38:53;97817.88;;;15.68;73.64
61039;BME280;46919;45.816;3.104;2022-09-09T06:41:20;97806.56;;;15.77;72.94
61039;BME280;46919;45.816;3.104;2022-09-09T06:43:46;97810.38;;;15.81;73.52
61039;BME280;46919;45.816;3.104;2022-09-09T06:46:17;97808.75;;;15.80;73.51
61039;BME280;46919;45.816;3.104;2022-09-09T06:48:44;97809.88;;;15.84;73.76
61039;BME280;46919;45.816;3.104;2022-09-09T06:53:38;97805.91;;;16.02;72.21
61039;BME280;46919;45.816;3.104;2022-09-09T06:58:36;97811.16;;;16.08;72.69
61039;BME280;46919;45.816;3.104;2022-09-09T07:01:05;97812.84;;;16.20;71.46
61039;BME280;46919;45.816;3.104;2022-09-09T07:03:31;97816.16;;;16.27;71.35
61039;BME280;46919;45.816;3.104;2022-09-09T07:05:57;97804.75;;;16.35;71.25
61039;BME280;46919;45.816;3.104;2022-09-09T07:08:23;97811.84;;;16.36;71.32
61039;BME280;46919;45.816;3.104;2022-09-09T07:10:50;97814.06;;;16.44;70.96
61039;BME280;46919;45.816;3.104;2022-09-09T07:13:24;97817.38;;;16.46;70.99
61039;BME280;46919;45.816;3.104;2022-09-09T07:15:51;97819.59;;;16.55;70.53
61039;BME280;46919;45.816;3.104;2022-09-09T07:18:17;97822.09;;;16.66;70.68
61039;BME280;46919;45.816;3.104;2022-09-09T07:20:43;97828.41;;;16.72;70.74
61039;BME280;46919;45.816;3.104;2022-09-09T07:23:08;97814.50;;;16.74;69.84
61039;BME280;46919;45.816;3.104;2022-09-09T07:25:33;97827.63;;;16.82;68.94
61039;BME280;46919;45.816;3.104;2022-09-09T07:27:59;97820.25;;;16.82;68.65
61039;BME280;46919;45.816;3.104;2022-09-09T07:30:24;97812.84;;;16.78;69.07
61039;BME280;46919;45.816;3.104;2022-09-09T07:32:51;97815.31;;;16.79;68.74
61039;BME280;46919;45.816;3.104;2022-09-09T07:35:17;97811.03;;;16.94;67.59
61039;BME280;46919;45.816;3.104;2022-09-09T07:37:42;97809.16;;;16.99;67.14
61039;BME280;46919;45.816;3.104;2022-09-09T07:40:08;97801.22;;;16.98;66.63
61039;BME280;46919;45.816;3.104;2022-09-09T07:42:33;97812.41;;;17.01;66.39
61039;BME280;46919;45.816;3.104;2022-09-09T07:44:59;97815.47;;;17.10;65.35
61039;BME280;46919;45.816;3.104;2022-09-09T07:47:24;97806.19;;;17.16;64.53
61039;BME280;46919;45.816;3.104;2022-09-09T07:49:50;97808.09;;;17.16;64.53
61039;BME280;46919;45.816;3.104;2022-09-09T07:52:15;97809.19;;;17.20;64.96
61039;BME280;46919;45.816;3.104;2022-09-09T07:54:41;97793.38;;;17.27;65.20
61039;BME280;46919;45.816;3.104;2022-09-09T07:57:07;97795.84;;;17.29;66.28
61039;BME280;46919;45.816;3.104;2022-09-09T07:59:33;97788.19;;;17.31;65.79
61039;BME280;46919;45.816;3.104;2022-09-09T08:01:58;97800.22;;;17.40;65.38
61039;BME280;46919;45.816;3.104;2022-09-09T08:04:25;97781.66;;;17.42;64.31
61039;BME280;46919;45.816;3.104;2022-09-09T08:06:57;97788.22;;;17.51;62.38
61039;BME280;46919;45.816;3.104;2022-09-09T08:09:24;97794.78;;;17.61;63.66
61039;BME280;46919;45.816;3.104;2022-09-09T08:11:54;97803.50;;;17.68;62.67
61039;BME280;46919;45.816;3.104;2022-09-09T08:14:22;97811.44;;;17.80;62.89
61039;BME280;46919;45.816;3.104;2022-09-09T08:16:49;97811.72;;;17.93;61.99
61039;BME280;46919;45.816;3.104;2022-09-09T08:19:15;97795.88;;;18.01;61.89
61039;BME280;46919;45.816;3.104;2022-09-09T08:21:42;97798.03;;;18.09;61.75
61039;BME280;46919;45.816;3.104;2022-09-09T08:24:09;97786.53;;;18.17;60.38
61039;BME280;46919;45.816;3.104;2022-09-09T08:26:40;97788.69;;;18.36;60.31
61039;BME280;46919;45.816;3.104;2022-09-09T08:29:10;97780.19;;;18.42;59.05
61039;BME280;46919;45.816;3.104;2022-09-09T08:31:42;97802.38;;;18.25;59.07
61039;BME280;46919;45.816;3.104;2022-09-09T08:34:08;97804.03;;;18.26;58.94
61039;BME280;46919;45.816;3.104;2022-09-09T08:36:40;97808.38;;;18.43;59.03
61039;BME280;46919;45.816;3.104;2022-09-09T08:39:08;97805.78;;;18.77;59.28
61039;BME280;46919;45.816;3.104;2022-09-09T08:52:32;97818.13;;;18.70;57.11
61039;BME280;46919;45.816;3.104;2022-09-09T08:57:55;97823.69;;;18.54;57.89
61039;BME280;46919;45.816;3.104;2022-09-09T09:00:21;97823.94;;;18.53;58.21
61039;BME280;46919;45.816;3.104;2022-09-09T09:03:15;97825.28;;;18.55;58.04
61039;BME280;46919;45.816;3.104;2022-09-09T09:05:57;97826.63;;;18.68;59.04
61039;BME280;46919;45.816;3.104;2022-09-09T09:08:55;97819.72;;;18.81;57.93
61039;BME280;46919;45.816;3.104;2022-09-09T09:11:24;97820.25;;;18.98;57.55
61039;BME280;46919;45.816;3.104;2022-09-09T09:14:01;97829.19;;;19.19;56.98
61039;BME280;46919;45.816;3.104;2022-09-09T09:16:41;97821.50;;;19.61;56.04
61039;BME280;46919;45.816;3.104;2022-09-09T09:19:14;97806.59;;;19.72;55.88
61039;BME280;46919;45.816;3.104;2022-09-09T09:27:57;97816.22;;;20.09;53.84
61039;BME280;46919;45.816;3.104;2022-09-09T09:30:29;97822.50;;;20.10;54.76
61039;BME280;46919;45.816;3.104;2022-09-09T09:33:02;97813.13;;;20.40;54.92
61039;BME280;46919;45.816;3.104;2022-09-09T09:35:30;97827.22;;;20.34;54.82
61039;BME280;46919;45.816;3.104;2022-09-09T09:37:56;97822.16;;;20.17;54.59
61039;BME280;46919;45.816;3.104;2022-09-09T09:40:22;97822.44;;;19.86;54.50
61039;BME280;46919;45.816;3.104;2022-09-09T09:42:59;97822.25;;;19.72;54.64
61039;BME280;46919;45.816;3.104;2022-09-09T09:48:03;97825.38;;;19.55;55.92
61039;BME280;46919;45.816;3.104;2022-09-09T09:50:30;97831.22;;;19.43;55.91
61039;BME280;46919;45.816;3.104;2022-09-09T09:52:59;97837.59;;;19.28;56.04
61039;BME280;46919;45.816;3.104;2022-09-09T09:55:25;97843.44;;;19.16;56.22
61039;BME280;46919;45.816;3.104;2022-09-09T09:57:52;97848.66;;;19.08;56.42
61039;BME280;46919;45.816;3.104;2022-09-09T10:00:21;97861.88;;;19.00;56.64
61039;BME280;46919;45.816;3.104;2022-09-09T10:02:47;97877.81;;;18.78;61.05
61039;BME280;46919;45.816;3.104;2022-09-09T10:05:20;97888.28;;;18.29;63.89
61039;BME280;46919;45.816;3.104;2022-09-09T10:07:47;97886.09;;;18.06;66.03
61039;BME280;46919;45.816;3.104;2022-09-09T10:10:23;97886.94;;;18.17;67.10
61039;BME280;46919;45.816;3.104;2022-09-09T10:31:46;97865.84;;;19.29;63.66
61039;BME280;46919;45.816;3.104;2022-09-09T10:37:07;97862.00;;;19.69;61.59
61039;BME280;46919;45.816;3.104;2022-09-09T10:39:39;97864.88;;;19.94;60.51
61039;BME280;46919;45.816;3.104;2022-09-09T10:42:14;97860.06;;;20.15;59.41
61039;BME280;46919;45.816;3.104;2022-09-09T10:55:51;97856.41;;;19.45;59.76
61039;BME280;46919;45.816;3.104;2022-09-09T10:58:28;97863.72;;;19.60;60.04
61039;BME280;46919;45.816;3.104;2022-09-09T11:01:03;97854.97;;;19.98;58.72
61039;BME280;46919;45.816;3.104;2022-09-09T11:03:34;97846.78;;;20.27;57.97
61039;BME280;46919;45.816;3.104;2022-09-09T11:06:06;97851.69;;;20.30;57.70
61039;BME280;46919;45.816;3.104;2022-09-09T11:08:38;97849.41;;;20.37;58.34
61039;BME280;46919;45.816;3.104;2022-09-09T11:19:19;97826.66;;;20.61;57.42
61039;BME280;46919;45.816;3.104;2022-09-09T11:21:49;97834.97;;;20.51;57.56
61039;BME280;46919;45.816;3.104;2022-09-09T11:24:40;97838.94;;;20.39;57.37
61039;BME280;46919;45.816;3.104;2022-09-09T11:27:15;97836.03;;;20.55;57.51
61039;BME280;46919;45.816;3.104;2022-09-09T11:35:54;97841.22;;;20.32;56.60
61039;BME280;46919;45.816;3.104;2022-09-09T11:38:32;97841.81;;;20.29;57.09
61039;BME280;46919;45.816;3.104;2022-09-09T11:41:05;97848.19;;;20.49;57.15
61039;BME280;46919;45.816;3.104;2022-09-09T11:43:46;97843.75;;;20.53;56.50
61039;BME280;46919;45.816;3.104;2022-09-09T11:46:15;97843.22;;;20.51;56.52
61039;BME280;46919;45.816;3.104;2022-09-09T11:48:57;97848.13;;;20.54;57.11
61039;BME280;46919;45.816;3.104;2022-09-09T11:56:42;97831.66;;;20.54;55.82
61039;BME280;46919;45.816;3.104;2022-09-09T12:04:32;97824.81;;;19.98;55.75
61039;BME280;46919;45.816;3.104;2022-09-09T12:07:00;97835.88;;;19.87;57.56
61039;BME280;46919;45.816;3.104;2022-09-09T12:14:42;97851.59;;;19.71;57.75
61039;BME280;46919;45.816;3.104;2022-09-09T12:17:24;97837.88;;;19.71;55.52
61039;BME280;46919;45.816;3.104;2022-09-09T12:20:21;97846.06;;;19.82;57.83
61039;BME280;46919;45.816;3.104;2022-09-09T12:31:41;97850.56;;;20.31;56.86
61039;BME280;46919;45.816;3.104;2022-09-09T12:37:04;97834.84;;;20.90;54.93
61039;BME280;46919;45.816;3.104;2022-09-09T12:39:44;97839.09;;;20.77;55.23
61039;BME280;46919;45.816;3.104;2022-09-09T12:42:21;97838.66;;;20.70;55.04
61039;BME280;46919;45.816;3.104;2022-09-09T12:45:01;97823.00;;;20.71;55.32
61039;BME280;46919;45.816;3.104;2022-09-09T12:47:38;97825.50;;;20.67;54.80
61039;BME280;46919;45.816;3.104;2022-09-09T12:50:22;97818.00;;;20.49;55.76
61039;BME280;46919;45.816;3.104;2022-09-09T12:52:53;97820.94;;;20.81;55.10
61039;BME280;46919;45.816;3.104;2022-09-09T12:55:29;97814.16;;;21.36;52.21
61039;BME280;46919;45.816;3.104;2022-09-09T12:57:56;97806.81;;;21.31;52.34
61039;BME280;46919;45.816;3.104;2022-09-09T13:00:24;97814.91;;;21.23;52.48
61039;BME280;46919;45.816;3.104;2022-09-09T13:02:55;97811.34;;;21.03;51.18
61039;BME280;46919;45.816;3.104;2022-09-09T13:05:24;97804.56;;;20.95;51.51
61039;BME280;46919;45.816;3.104;2022-09-09T13:07:50;97807.63;;;20.94;52.42
61039;BME280;46919;45.816;3.104;2022-09-09T13:10:23;97804.31;;;20.92;52.59
61039;BME280;46919;45.816;3.104;2022-09-09T13:12:49;97815.97;;;20.84;52.79
61039;BME280;46919;45.816;3.104;2022-09-09T13:15:23;97823.69;;;20.81;52.25
61039;BME280;46919;45.816;3.104;2022-09-09T13:17:55;97830.88;;;20.77;52.15
61039;BME280;46919;45.816;3.104;2022-09-09T13:20:22;97825.84;;;20.85;51.77
61039;BME280;46919;45.816;3.104;2022-09-09T13:22:49;97824.38;;;20.92;52.48
61039;BME280;46919;45.816;3.104;2022-09-09T13:25:27;97818.63;;;20.89;51.15
61039;BME280;46919;45.816;3.104;2022-09-09T13:30:34;97822.59;;;20.83;52.60
61039;BME280;46919;45.816;3.104;2022-09-09T13:35:35;97807.78;;;20.78;53.29
61039;BME280;46919;45.816;3.104;2022-09-09T13:38:14;97811.47;;;20.93;53.12
61039;BME280;46919;45.816;3.104;2022-09-09T13:40:39;97809.53;;;21.12;52.40
61039;BME280;46919;45.816;3.104;2022-09-09T13:43:14;97803.34;;;21.26;52.54
61039;BME280;46919;45.816;3.104;2022-09-09T13:46:02;97801.84;;;21.14;51.52
61039;BME280;46919;45.816;3.104;2022-09-09T13:48:28;97794.41;;;21.72;50.98
61039;BME280;46919;45.816;3.104;2022-09-09T13:51:02;97795.34;;;22.28;49.19
61039;BME280;46919;45.816;3.104;2022-09-09T13:53:30;97790.25;;;22.21;49.51
61039;BME280;46919;45.816;3.104;2022-09-09T13:55:57;97786.84;;;22.57;48.13
61039;BME280;46919;45.816;3.104;2022-09-09T13:58:23;97781.53;;;22.75;47.51
61039;BME280;46919;45.816;3.104;2022-09-09T14:00:51;97774.81;;;22.81;47.33
61039;BME280;46919;45.816;3.104;2022-09-09T14:03:17;97776.81;;;22.89;47.48
61039;BME280;46919;45.816;3.104;2022-09-09T14:05:44;97774.38;;;22.74;47.89
61039;BME280;46919;45.816;3.104;2022-09-09T14:08:16;97772.44;;;22.88;47.57
61039;BME280;46919;45.816;3.104;2022-09-09T14:10:45;97780.19;;;22.72;48.15
61039;BME280;46919;45.816;3.104;2022-09-09T14:13:11;97783.75;;;22.87;47.48
61039;BME280;46919;45.816;3.104;2022-09-09T14:15:37;97769.97;;;23.01;46.02
61039;BME280;46919;45.816;3.104;2022-09-09T14:18:03;97756.78;;;23.25;45.45
61039;BME280;46919;45.816;3.104;2022-09-09T14:20:28;97775.41;;;22.78;46.17
61039;BME280;46919;45.816;3.104;2022-09-09T14:22:53;97762.16;;;22.66;46.33
61039;BME280;46919;45.816;3.104;2022-09-09T14:25:19;97759.06;;;22.95;46.58
61039;BME280;46919;45.816;3.104;2022-09-09T14:27:44;97762.63;;;23.10;45.98
61039;BME280;46919;45.816;3.104;2022-09-09T14:30:11;97754.88;;;23.34;46.77
61039;BME280;46919;45.816;3.104;2022-09-09T14:32:37;97761.81;;;23.46;45.37
61039;BME280;46919;45.816;3.104;2022-09-09T14:35:03;97765.50;;;22.91;46.02
61039;BME280;46919;45.816;3.104;2022-09-09T14:37:28;97770.75;;;22.51;46.54
61039;BME280;46919;45.816;3.104;2022-09-09T14:39:56;97774.16;;;22.29;46.67
61039;BME280;46919;45.816;3.104;2022-09-09T14:42:21;97770.41;;;21.92;47.01
61039;BME280;46919;45.816;3.104;2022-09-09T14:44:47;97780.16;;;21.84;47.07
61039;BME280;46919;45.816;3.104;2022-09-09T14:47:13;97791.56;;;21.77;47.50
61039;BME280;46919;45.816;3.104;2022-09-09T14:49:38;97819.25;;;21.67;47.81
61039;BME280;46919;45.816;3.104;2022-09-09T14:52:04;97799.41;;;21.51;48.42
61039;BME280;46919;45.816;3.104;2022-09-09T14:54:31;97815.81;;;21.37;49.63
61039;BME280;46919;45.816;3.104;2022-09-09T14:56:57;97816.31;;;21.20;49.75
61039;BME280;46919;45.816;3.104;2022-09-09T14:59:23;97806.06;;;21.07;50.31
61039;BME280;46919;45.816;3.104;2022-09-09T15:01:48;97812.38;;;21.07;50.29
61039;BME280;46919;45.816;3.104;2022-09-09T15:04:14;97817.47;;;20.95;50.97
61039;BME280;46919;45.816;3.104;2022-09-09T15:06:43;97824.22;;;20.84;51.43
61039;BME280;46919;45.816;3.104;2022-09-09T15:09:12;97828.56;;;20.66;51.91
61039;BME280;46919;45.816;3.104;2022-09-09T15:11:38;97827.75;;;20.65;52.36
61039;BME280;46919;45.816;3.104;2022-09-09T15:14:04;97840.44;;;20.56;52.96
61039;BME280;46919;45.816;3.104;2022-09-09T15:16:30;97853.25;;;20.36;53.59
61039;BME280;46919;45.816;3.104;2022-09-09T15:18:58;97863.84;;;20.19;54.50
61039;BME280;46919;45.816;3.104;2022-09-09T15:21:26;97863.44;;;20.01;55.09
61039;BME280;46919;45.816;3.104;2022-09-09T15:23:52;97855.34;;;19.86;55.78
61039;BME280;46919;45.816;3.104;2022-09-09T15:26:19;97856.78;;;19.78;56.15
61039;BME280;46919;45.816;3.104;2022-09-09T15:28:46;97859.81;;;19.71;56.83
61039;BME280;46919;45.816;3.104;2022-09-09T15:31:20;97848.88;;;19.66;57.33
61039;BME280;46919;45.816;3.104;2022-09-09T15:34:05;97843.34;;;19.77;57.53
61039;BME280;46919;45.816;3.104;2022-09-09T15:36:39;97822.16;;;20.17;57.54
61039;BME280;46919;45.816;3.104;2022-09-09T15:39:07;97833.31;;;21.03;54.93
61039;BME280;46919;45.816;3.104;2022-09-09T15:41:33;97823.28;;;21.56;53.74
61039;BME280;46919;45.816;3.104;2022-09-09T15:44:00;97823.09;;;21.47;53.73